createdAt,value
2022-12-31T00:00:07.741Z,99998.91
2022-12-31T00:02:34.490Z,100006.78
2022-12-31T00:05:01.133Z,100011.25
2022-12-31T00:07:27.766Z,100013.03
2022-12-31T00:09:54.322Z,100007.84
2022-12-31T00:12:20.850Z,100011.34
2022-12-31T00:14:47.594Z,100017.63
2022-12-31T00:17:14.194Z,100015.78
2022-12-31T00:19:40.792Z,100020.19
2022-12-31T00:22:07.326Z,100011.50
2022-12-31T00:24:35.860Z,100006.16
2022-12-31T00:27:02.461Z,100016.63
2022-12-31T00:29:28.994Z,100012.28
2022-12-31T00:31:55.641Z,100014.09
2022-12-31T00:34:22.239Z,100011.50
2022-12-31T00:36:48.797Z,100015.94
2022-12-31T00:39:15.350Z,100017.69
2022-12-31T00:41:43.959Z,100021.38
2022-12-31T00:44:13.792Z,100026.53
2022-12-31T00:49:05.797Z,100014.97
2022-12-31T00:51:32.324Z,100024.81
2022-12-31T00:53:59.104Z,100014.91
2022-12-31T00:56:28.835Z,100023.97
2022-12-31T00:58:55.704Z,100024.06
2022-12-31T01:01:26.103Z,100023.00
2022-12-31T01:03:55.337Z,100022.13
2022-12-31T01:06:22.279Z,100020.41
2022-12-31T01:08:49.725Z,100020.53
2022-12-31T01:11:20.491Z,100026.63
2022-12-31T01:14:02.437Z,100023.16
2022-12-31T01:16:30.793Z,100027.69
2022-12-31T01:19:02.079Z,100035.56
2022-12-31T01:21:29.326Z,100023.97
2022-12-31T01:23:55.876Z,100021.34
2022-12-31T01:26:22.422Z,100033.00
2022-12-31T01:28:48.985Z,100026.75
2022-12-31T01:31:17.743Z,100034.75
2022-12-31T01:33:45.045Z,100037.47
2022-12-31T01:36:23.526Z,100033.88
2022-12-31T01:38:52.948Z,100036.59
2022-12-31T01:41:25.018Z,100045.53
2022-12-31T01:43:56.620Z,100053.50
2022-12-31T01:46:28.799Z,100046.38
2022-12-31T01:48:59.019Z,100045.47
2022-12-31T01:51:27.569Z,100054.69
2022-12-31T01:53:55.067Z,100041.88
2022-12-31T01:56:22.928Z,100048.16
2022-12-31T01:58:51.273Z,100062.56
2022-12-31T02:01:24.490Z,100049.09
2022-12-31T02:03:51.833Z,100066.91
2022-12-31T02:06:22.805Z,100072.34
2022-12-31T02:08:50.124Z,100067.91
2022-12-31T02:11:32.962Z,100061.66
2022-12-31T02:14:03.554Z,100066.91
2022-12-31T02:16:48.692Z,100067.00
2022-12-31T02:19:49.190Z,100068.63
2022-12-31T02:22:34.241Z,100069.50
2022-12-31T02:25:12.823Z,100060.69
2022-12-31T02:27:45.056Z,100045.59
2022-12-31T02:30:15.386Z,100057.81
2022-12-31T02:33:14.287Z,100058.00
2022-12-31T02:35:49.914Z,100049.06
2022-12-31T02:38:31.262Z,100057.19
2022-12-31T02:40:58.187Z,100044.63
2022-12-31T02:43:25.152Z,100033.03
2022-12-31T02:46:10.139Z,100045.38
2022-12-31T02:48:41.118Z,100058.00
2022-12-31T02:52:00.377Z,100056.28
2022-12-31T02:54:36.902Z,100054.59
2022-12-31T02:57:27.597Z,100042.81
2022-12-31T03:00:27.458Z,100049.97
2022-12-31T03:02:54.937Z,100040.25
2022-12-31T03:05:24.210Z,100050.16
2022-12-31T03:07:51.138Z,100043.03
2022-12-31T03:10:17.722Z,100022.50
2022-12-31T03:12:47.726Z,100033.13
2022-12-31T03:15:22.313Z,100038.47
2022-12-31T03:18:09.843Z,100028.59
2022-12-31T03:21:00.439Z,100034.97
2022-12-31T03:23:33.086Z,100042.06
2022-12-31T03:26:00.532Z,100036.72
2022-12-31T03:28:29.430Z,100032.16
2022-12-31T03:30:58.596Z,100036.63
2022-12-31T03:33:25.515Z,100038.38
2022-12-31T03:35:53.492Z,100038.47
2022-12-31T03:38:20.365Z,100035.75
2022-12-31T03:40:51.628Z,100029.66
2022-12-31T03:43:19.533Z,100037.69
2022-12-31T03:45:53.217Z,100050.94
2022-12-31T03:48:21.921Z,100050.09
2022-12-31T03:50:48.995Z,100036.94
2022-12-31T03:53:15.737Z,100041.16
2022-12-31T03:55:42.254Z,100028.69
2022-12-31T03:58:08.796Z,100040.47
2022-12-31T04:00:35.322Z,100036.94
2022-12-31T04:03:01.967Z,100041.28
2022-12-31T04:05:28.584Z,100032.41
2022-12-31T04:07:55.861Z,100032.28
2022-12-31T04:10:22.447Z,100026.88
2022-12-31T04:12:49.014Z,100038.53
2022-12-31T04:15:18.971Z,100041.31
2022-12-31T04:17:45.750Z,100043.09
2022-12-31T04:20:12.408Z,100051.00
2022-12-31T04:22:38.992Z,100048.53
2022-12-31T04:25:11.079Z,100046.78
2022-12-31T04:27:43.430Z,100049.41
2022-12-31T04:30:11.162Z,100047.66
2022-12-31T04:32:37.895Z,100051.16
2022-12-31T04:35:04.883Z,100037.84
2022-12-31T04:37:31.430Z,100044.94
2022-12-31T04:40:03.563Z,100043.84
2022-12-31T04:42:32.302Z,100048.44
2022-12-31T04:44:58.881Z,100041.34
2022-12-31T04:47:25.416Z,100037.03
2022-12-31T04:49:51.931Z,100036.09
2022-12-31T04:52:18.474Z,100039.63
2022-12-31T04:54:45.146Z,100048.50
2022-12-31T04:57:11.681Z,100046.63
2022-12-31T04:59:38.201Z,100049.34
2022-12-31T05:02:04.879Z,100046.81
2022-12-31T05:04:31.639Z,100038.66
2022-12-31T05:06:58.176Z,100053.00
2022-12-31T05:09:27.465Z,100060.91
2022-12-31T05:11:54.142Z,100065.44
2022-12-31T05:14:20.834Z,100064.50
2022-12-31T05:16:47.380Z,100053.09
2022-12-31T05:19:13.947Z,100041.44
2022-12-31T05:21:40.506Z,100036.13
2022-12-31T05:24:07.474Z,100047.75
2022-12-31T05:26:34.137Z,100042.44
2022-12-31T05:29:00.736Z,100044.28
2022-12-31T05:31:27.338Z,100037.09
2022-12-31T05:33:53.903Z,100022.75
2022-12-31T05:36:20.482Z,100020.19
2022-12-31T05:38:47.000Z,100032.66
2022-12-31T05:41:13.550Z,100025.50
2022-12-31T05:43:40.081Z,100036.94
2022-12-31T05:46:06.677Z,100032.56
2022-12-31T05:48:33.348Z,100042.22
2022-12-31T05:51:00.198Z,100042.22
2022-12-31T05:53:26.752Z,100061.09
2022-12-31T05:55:53.324Z,100073.41
2022-12-31T05:58:19.903Z,100070.91
2022-12-31T06:00:46.434Z,100075.44
2022-12-31T06:03:13.193Z,100074.53
2022-12-31T06:05:41.861Z,100077.25
2022-12-31T06:08:09.029Z,100077.97
2022-12-31T06:10:35.550Z,100088.63
2022-12-31T06:13:02.176Z,100089.53
2022-12-31T06:15:28.722Z,100101.13
2022-12-31T06:17:55.276Z,100100.31
2022-12-31T06:20:21.852Z,100106.59
2022-12-31T06:22:48.378Z,100110.06
2022-12-31T06:25:14.998Z,100109.25
2022-12-31T06:27:41.563Z,100106.72
2022-12-31T06:30:08.893Z,100096.03
2022-12-31T06:32:35.450Z,100101.38
2022-12-31T06:35:01.969Z,100100.59
2022-12-31T06:37:28.538Z,100107.59
2022-12-31T06:39:55.136Z,100110.38
2022-12-31T06:42:21.691Z,100090.69
2022-12-31T06:44:48.218Z,100094.19
2022-12-31T06:47:14.769Z,100091.66
2022-12-31T06:49:41.297Z,100090.75
2022-12-31T06:52:08.330Z,100088.94
2022-12-31T06:54:35.069Z,100086.34
2022-12-31T06:57:01.811Z,100088.91
2022-12-31T06:59:29.594Z,100090.81
2022-12-31T07:02:17.524Z,100088.97
2022-12-31T07:05:12.048Z,100087.16
2022-12-31T07:08:06.198Z,100088.13
2022-12-31T07:11:00.992Z,100089.78
2022-12-31T07:13:45.972Z,100096.09
2022-12-31T07:16:42.907Z,100090.75
2022-12-31T07:19:19.746Z,100085.34
2022-12-31T07:21:46.413Z,100083.41
2022-12-31T07:24:13.477Z,100080.19
2022-12-31T07:27:18.931Z,100082.25
2022-12-31T07:30:00.017Z,100081.88
2022-12-31T07:33:01.372Z,100087.75
2022-12-31T07:36:01.641Z,100087.44
2022-12-31T07:38:50.886Z,100093.66
2022-12-31T07:41:26.259Z,100096.13
2022-12-31T07:44:11.428Z,100097.09
2022-12-31T07:46:55.544Z,100082.75
2022-12-31T07:49:23.014Z,100081.16
2022-12-31T07:51:49.788Z,100077.47
2022-12-31T07:54:16.343Z,100082.75
2022-12-31T07:56:43.206Z,100082.91
2022-12-31T07:59:34.741Z,100071.22
2022-12-31T08:02:42.402Z,100062.22
2022-12-31T08:05:34.222Z,100072.97
2022-12-31T08:08:15.821Z,100098.81
2022-12-31T08:10:45.266Z,100063.69
2022-12-31T08:13:12.572Z,100054.69
2022-12-31T08:15:40.077Z,100062.69
2022-12-31T08:18:07.988Z,100053.66
2022-12-31T08:20:40.038Z,100040.16
2022-12-31T08:23:21.943Z,100037.22
2022-12-31T08:26:26.902Z,100037.09
2022-12-31T08:29:10.835Z,100039.75
2022-12-31T08:31:47.839Z,100038.91
2022-12-31T08:34:25.319Z,100030.16
2022-12-31T08:36:55.864Z,100045.16
2022-12-31T08:39:37.518Z,100041.53
2022-12-31T08:42:05.691Z,100047.72
2022-12-31T08:44:53.310Z,100049.44
2022-12-31T08:47:46.603Z,100045.97
2022-12-31T08:50:14.929Z,100050.41
2022-12-31T08:52:41.783Z,100044.28
2022-12-31T08:55:12.148Z,100042.63
2022-12-31T08:58:12.568Z,100041.66
2022-12-31T09:00:39.465Z,100036.25
2022-12-31T09:03:27.551Z,100042.63
2022-12-31T09:05:58.765Z,100037.44
2022-12-31T09:08:49.433Z,100029.34
2022-12-31T09:11:41.455Z,100032.31
2022-12-31T09:14:36.587Z,100031.34
2022-12-31T09:17:11.407Z,100047.91
2022-12-31T09:19:37.943Z,100041.75
2022-12-31T09:22:04.596Z,100042.63
2022-12-31T09:24:31.267Z,100031.84
2022-12-31T09:27:06.395Z,100035.59
2022-12-31T09:29:48.854Z,100032.81
2022-12-31T09:32:54.012Z,100036.53
2022-12-31T09:35:41.344Z,100039.22
2022-12-31T09:38:23.024Z,100043.88
2022-12-31T09:41:06.377Z,100039.28
2022-12-31T09:43:35.886Z,100055.31
2022-12-31T09:46:08.154Z,100042.84
2022-12-31T09:49:01.136Z,100052.78
2022-12-31T09:51:32.178Z,100051.97
2022-12-31T09:54:24.092Z,100051.13
2022-12-31T09:57:20.771Z,100053.84
2022-12-31T10:00:31.241Z,100063.56
2022-12-31T10:03:30.781Z,100065.25
2022-12-31T10:05:57.345Z,100069.03
2022-12-31T10:08:52.382Z,100070.72
2022-12-31T10:11:32.933Z,100068.25
2022-12-31T10:13:59.443Z,100068.28
2022-12-31T10:16:59.868Z,100068.38
2022-12-31T10:19:36.404Z,100076.13
2022-12-31T10:22:28.841Z,100082.59
2022-12-31T10:25:38.545Z,100078.91
2022-12-31T10:28:28.587Z,100077.13
2022-12-31T10:31:25.224Z,100102.16
2022-12-31T10:34:07.206Z,100098.53
2022-12-31T10:36:57.822Z,100090.63
2022-12-31T10:39:30.662Z,100101.09
2022-12-31T10:42:20.804Z,100110.84
2022-12-31T10:45:16.621Z,100098.41
2022-12-31T10:47:51.864Z,100110.78
2022-12-31T10:50:35.621Z,100090.34
2022-12-31T10:53:08.057Z,100088.41
2022-12-31T10:55:59.021Z,100080.34
2022-12-31T10:58:56.367Z,100075.06
2022-12-31T11:01:55.834Z,100086.47
2022-12-31T11:04:46.477Z,100080.25
2022-12-31T11:07:50.265Z,100093.81
2022-12-31T11:10:44.329Z,100101.69
2022-12-31T11:13:29.114Z,100088.41
2022-12-31T11:16:14.169Z,100076.56
2022-12-31T11:19:11.901Z,100084.59
2022-12-31T11:21:52.263Z,100094.72
2022-12-31T11:24:33.215Z,100092.91
2022-12-31T11:27:19.918Z,100106.31
2022-12-31T11:30:18.364Z,100125.00
2022-12-31T11:33:03.735Z,100120.59
2022-12-31T11:35:30.238Z,100132.09
2022-12-31T11:38:15.151Z,100136.47
2022-12-31T11:41:13.750Z,100128.28
2022-12-31T11:43:46.165Z,100121.16
2022-12-31T11:46:24.581Z,100121.25
2022-12-31T11:49:09.097Z,100110.56
2022-12-31T11:51:50.836Z,100103.50
2022-12-31T11:54:55.828Z,100120.41
2022-12-31T11:57:37.964Z,100117.72
2022-12-31T12:00:07.090Z,100105.34
2022-12-31T12:02:41.909Z,100103.66
2022-12-31T12:05:11.326Z,100093.72
2022-12-31T12:07:38.242Z,100103.66
2022-12-31T12:10:17.610Z,100103.22
2022-12-31T12:12:44.153Z,100103.34
2022-12-31T12:15:18.154Z,100102.44
2022-12-31T12:17:50.373Z,100092.63
2022-12-31T12:20:21.986Z,100091.75
2022-12-31T12:22:56.204Z,100105.03
2022-12-31T12:25:25.640Z,100090.88
2022-12-31T12:27:54.352Z,100098.91
2022-12-31T12:30:27.433Z,100106.94
2022-12-31T12:32:56.614Z,100105.03
2022-12-31T12:35:34.863Z,100112.38
2022-12-31T12:38:06.985Z,100106.88
2022-12-31T12:40:34.641Z,100114.16
2022-12-31T12:43:01.906Z,100118.66
2022-12-31T12:45:37.059Z,100116.84
2022-12-31T12:48:11.090Z,100112.38
2022-12-31T12:50:48.363Z,100124.84
2022-12-31T12:53:23.603Z,100106.91
2022-12-31T12:56:04.980Z,100123.16
2022-12-31T12:58:45.768Z,100110.69
2022-12-31T13:01:34.957Z,100122.94
2022-12-31T13:04:33.927Z,100128.09
2022-12-31T13:07:24.328Z,100129.94
2022-12-31T13:09:54.227Z,100146.00
2022-12-31T13:13:22.054Z,100155.03
2022-12-31T13:15:48.261Z,100148.03
2022-12-31T13:18:23.588Z,100147.94
2022-12-31T13:21:00.415Z,100158.00
2022-12-31T13:23:39.466Z,100155.31
2022-12-31T13:26:22.465Z,100150.97
2022-12-31T13:28:50.902Z,100169.44
2022-12-31T13:31:21.590Z,100158.56
2022-12-31T13:33:55.914Z,100156.72
2022-12-31T13:36:25.087Z,100166.47
2022-12-31T13:38:53.583Z,100164.63
2022-12-31T13:41:32.647Z,100169.34
2022-12-31T13:44:04.876Z,100162.56
2022-12-31T13:47:08.800Z,100180.47
2022-12-31T13:49:43.952Z,100182.28
2022-12-31T13:52:22.196Z,100172.25
2022-12-31T13:55:13.171Z,100165.81
2022-12-31T13:57:45.801Z,100175.44
2022-12-31T14:00:21.785Z,100177.97
2022-12-31T14:03:09.150Z,100188.78
2022-12-31T14:05:41.598Z,100189.09
2022-12-31T14:08:08.237Z,100207.19
2022-12-31T14:10:42.715Z,100193.75
2022-12-31T14:13:51.138Z,100194.44
2022-12-31T14:16:29.412Z,100194.25
2022-12-31T14:19:34.208Z,100204.09
2022-12-31T14:22:22.235Z,100190.53
2022-12-31T14:24:52.082Z,100217.22
2022-12-31T14:27:18.547Z,100194.97
2022-12-31T14:29:45.018Z,100198.53
2022-12-31T14:32:33.112Z,100197.94
2022-12-31T14:35:20.961Z,100204.09
2022-12-31T14:38:08.523Z,100210.25
2022-12-31T14:40:56.624Z,100217.22
2022-12-31T14:43:45.787Z,100213.47
2022-12-31T14:46:38.692Z,100228.28
2022-12-31T14:49:32.837Z,100224.50
2022-12-31T14:52:31.376Z,100239.44
2022-12-31T14:55:09.778Z,100238.53
2022-12-31T14:58:16.704Z,100220.50
2022-12-31T15:00:38.160Z,100237.38
2022-12-31T15:03:04.806Z,100241.88
2022-12-31T15:05:36.245Z,100245.47
2022-12-31T15:08:21.280Z,100242.00
2022-12-31T15:11:04.958Z,100238.28
2022-12-31T15:13:31.311Z,100243.81
2022-12-31T15:16:28.517Z,100248.34
2022-12-31T15:19:19.789Z,100256.38
2022-12-31T15:22:04.772Z,100271.47
2022-12-31T15:24:31.359Z,100258.13
2022-12-31T15:27:03.041Z,100271.28
2022-12-31T15:29:35.947Z,100272.25
2022-12-31T15:32:09.678Z,100273.94
2022-12-31T15:34:36.892Z,100275.63
2022-12-31T15:37:32.133Z,100281.91
2022-12-31T15:40:21.383Z,100290.81
2022-12-31T15:42:52.578Z,100302.16
2022-12-31T15:45:24.414Z,100285.22
2022-12-31T15:47:56.398Z,100290.28
2022-12-31T15:50:23.685Z,100277.72
2022-12-31T15:52:54.853Z,100294.75
2022-12-31T15:55:33.269Z,100293.56
2022-12-31T15:58:04.991Z,100297.09
2022-12-31T16:01:07.795Z,100301.69
2022-12-31T16:03:34.532Z,100300.81
2022-12-31T16:06:08.718Z,100284.69
2022-12-31T16:08:35.524Z,100276.69
2022-12-31T16:11:04.372Z,100266.75
2022-12-31T16:13:32.241Z,100267.75
2022-12-31T16:16:07.668Z,100263.25
2022-12-31T16:18:43.254Z,100269.44
2022-12-31T16:21:28.188Z,100262.31
2022-12-31T16:23:57.651Z,100264.94
2022-12-31T16:26:29.331Z,100250.84
2022-12-31T16:28:59.940Z,100240.94
2022-12-31T16:31:28.565Z,100241.84
2022-12-31T16:34:06.725Z,100245.50
2022-12-31T16:36:33.479Z,100239.22
2022-12-31T16:39:21.424Z,100232.22
2022-12-31T16:41:48.026Z,100224.19
2022-12-31T16:44:28.720Z,100231.00
2022-12-31T16:46:57.375Z,100227.66
2022-12-31T16:49:24.278Z,100222.91
2022-12-31T16:51:51.168Z,100234.94
2022-12-31T16:54:29.471Z,100238.44
2022-12-31T16:56:56.897Z,100229.41
2022-12-31T16:59:55.976Z,100230.81
2022-12-31T17:03:07.193Z,100239.84
2022-12-31T17:05:36.183Z,100231.00
2022-12-31T17:08:22.909Z,100227.28
2022-12-31T17:10:49.467Z,100243.31
2022-12-31T17:13:28.446Z,100224.47
2022-12-31T17:15:57.037Z,100228.22
2022-12-31T17:18:26.783Z,100225.34
2022-12-31T17:20:54.961Z,100223.88
2022-12-31T17:23:32.074Z,100222.03
2022-12-31T17:26:22.711Z,100220.28
2022-12-31T17:28:51.353Z,100233.69
2022-12-31T17:31:36.994Z,100218.31
2022-12-31T17:34:12.415Z,100225.53
2022-12-31T17:36:40.370Z,100212.09
2022-12-31T17:39:17.801Z,100217.53
2022-12-31T17:41:49.011Z,100210.66
2022-12-31T17:44:19.032Z,100209.66
2022-12-31T17:46:45.715Z,100192.75
2022-12-31T17:49:14.155Z,100195.38
2022-12-31T17:51:47.184Z,100201.63
2022-12-31T17:54:14.673Z,100199.00
2022-12-31T17:56:41.720Z,100202.41
2022-12-31T17:59:08.329Z,100218.75
2022-12-31T18:01:34.935Z,100222.19
2022-12-31T18:04:01.584Z,100228.38
2022-12-31T18:06:28.338Z,100225.97
2022-12-31T18:08:54.891Z,100216.19
2022-12-31T18:11:23.449Z,100233.88
2022-12-31T18:13:50.249Z,100231.50
2022-12-31T18:16:17.256Z,100232.34
2022-12-31T18:18:45.332Z,100225.16
2022-12-31T18:21:23.380Z,100228.06
2022-12-31T18:23:50.583Z,100224.47
2022-12-31T18:26:19.724Z,100212.75
2022-12-31T18:28:46.654Z,100202.84
2022-12-31T18:31:24.503Z,100211.56
2022-12-31T18:33:52.394Z,100213.41
2022-12-31T18:36:19.937Z,100215.22
2022-12-31T18:38:46.560Z,100217.09
2022-12-31T18:41:21.723Z,100220.59
2022-12-31T18:43:49.068Z,100218.88
2022-12-31T18:46:18.466Z,100208.22
2022-12-31T18:48:45.144Z,100196.44
2022-12-31T18:51:15.730Z,100207.06
2022-12-31T18:53:42.432Z,100201.03
2022-12-31T18:56:17.649Z,100201.88
2022-12-31T18:58:45.044Z,100212.66
2022-12-31T19:01:29.851Z,100210.84
2022-12-31T19:04:01.821Z,100193.19
2022-12-31T19:06:29.206Z,100206.56
2022-12-31T19:08:56.001Z,100199.16
2022-12-31T19:11:22.668Z,100205.47
2022-12-31T19:13:49.668Z,100192.06
2022-12-31T19:16:16.336Z,100194.75
2022-12-31T19:18:42.924Z,100188.31
2022-12-31T19:21:18.002Z,100174.22
2022-12-31T19:23:44.899Z,100193.91
2022-12-31T19:26:16.594Z,100197.59
2022-12-31T19:28:44.473Z,100196.75
2022-12-31T19:31:11.529Z,100185.13
2022-12-31T19:33:38.574Z,100193.16
2022-12-31T19:36:07.331Z,100181.59
2022-12-31T19:38:34.397Z,100179.47
2022-12-31T19:41:01.783Z,100175.03
2022-12-31T19:43:28.351Z,100175.88
2022-12-31T19:45:54.991Z,100186.69
2022-12-31T19:48:30.271Z,100190.56
2022-12-31T19:50:58.767Z,100183.19
2022-12-31T19:53:27.297Z,100174.22
2022-12-31T19:55:53.951Z,100174.28
2022-12-31T19:58:28.190Z,100183.00
2022-12-31T20:01:01.982Z,100168.75
2022-12-31T20:03:29.265Z,100172.34
2022-12-31T20:06:09.403Z,100189.34
2022-12-31T20:08:37.908Z,100179.56
2022-12-31T20:11:12.451Z,100170.56
2022-12-31T20:13:39.935Z,100172.19
2022-12-31T20:16:11.828Z,100180.25
2022-12-31T20:18:38.889Z,100178.41
2022-12-31T20:21:09.913Z,100179.44
2022-12-31T20:23:36.454Z,100173.94
2022-12-31T20:26:03.159Z,100174.13
2022-12-31T20:28:29.900Z,100182.16
2022-12-31T20:30:56.568Z,100198.22
2022-12-31T20:33:23.287Z,100192.94
2022-12-31T20:35:49.918Z,100185.81
2022-12-31T20:38:16.471Z,100203.03
2022-12-31T20:40:46.650Z,100209.44
2022-12-31T20:43:14.077Z,100211.91
2022-12-31T20:45:41.408Z,100201.09
2022-12-31T20:48:08.086Z,100207.53
2022-12-31T20:50:34.678Z,100209.97
2022-12-31T20:53:02.005Z,100221.63
2022-12-31T20:55:30.683Z,100227.81
2022-12-31T20:57:57.249Z,100229.59
2022-12-31T21:00:23.801Z,100231.59
2022-12-31T21:02:57.869Z,100209.97
2022-12-31T21:05:33.444Z,100226.25
2022-12-31T21:08:00.154Z,100232.44
2022-12-31T21:10:26.694Z,100220.88
2022-12-31T21:12:53.435Z,100215.41
2022-12-31T21:15:21.384Z,100218.28
2022-12-31T21:17:47.925Z,100219.19
2022-12-31T21:20:14.469Z,100230.00
2022-12-31T21:22:41.018Z,100231.78
2022-12-31T21:25:07.866Z,100235.38
2022-12-31T21:27:35.480Z,100233.63
2022-12-31T21:30:18.475Z,100247.84
2022-12-31T21:32:45.507Z,100249.63
2022-12-31T21:35:41.627Z,100237.94
2022-12-31T21:38:02.601Z,100230.94
2022-12-31T21:40:30.115Z,100238.91
2022-12-31T21:42:56.860Z,100245.97
2022-12-31T21:45:23.580Z,100254.00
2022-12-31T21:48:08.746Z,100253.03
2022-12-31T21:50:35.396Z,100236.25
2022-12-31T21:53:01.957Z,100233.25
2022-12-31T21:55:46.730Z,100237.13
2022-12-31T21:58:25.996Z,100237.13
2022-12-31T22:01:12.770Z,100237.13
2022-12-31T22:03:39.567Z,100244.16
2022-12-31T22:06:14.367Z,100240.72
2022-12-31T22:08:42.614Z,100257.56
2022-12-31T22:11:10.039Z,100252.94
2022-12-31T22:13:37.039Z,100251.03
2022-12-31T22:16:05.811Z,100252.75
2022-12-31T22:18:38.792Z,100267.19
2022-12-31T22:21:18.451Z,100265.59
2022-12-31T22:23:47.144Z,100271.69
2022-12-31T22:26:15.762Z,100269.03
2022-12-31T22:28:43.774Z,100278.09
2022-12-31T22:31:18.671Z,100287.03
2022-12-31T22:33:45.299Z,100273.69
2022-12-31T22:36:16.034Z,100276.50
2022-12-31T22:38:43.018Z,100289.88
2022-12-31T22:41:14.891Z,100287.22
2022-12-31T22:43:43.978Z,100293.53
2022-12-31T22:46:13.607Z,100292.50
2022-12-31T22:48:40.575Z,100280.19
2022-12-31T22:51:07.917Z,100294.28
2022-12-31T22:53:34.591Z,100303.34
2022-12-31T22:56:01.311Z,100291.72
2022-12-31T22:58:27.934Z,100292.56
2022-12-31T23:00:54.523Z,100297.06
2022-12-31T23:03:21.100Z,100267.69
2022-12-31T23:05:53.728Z,100284.56
2022-12-31T23:08:23.582Z,100294.66
2022-12-31T23:11:05.316Z,100269.53
2022-12-31T23:13:56.718Z,100275.84
2022-12-31T23:16:43.893Z,100284.00
2022-12-31T23:19:29.368Z,100293.66
2022-12-31T23:22:14.578Z,100291.06
2022-12-31T23:24:41.178Z,100296.31
2022-12-31T23:27:08.337Z,100299.19
2022-12-31T23:29:46.117Z,100292.00
2022-12-31T23:32:15.044Z,100285.72
2022-12-31T23:34:43.064Z,100288.38
2022-12-31T23:37:09.607Z,100283.06
2022-12-31T23:39:36.145Z,100284.16
2022-12-31T23:42:02.786Z,100282.31
2022-12-31T23:44:29.315Z,100284.00
2022-12-31T23:46:56.242Z,100299.34
2022-12-31T23:49:23.050Z,100292.97
2022-12-31T23:51:49.608Z,100293.91
2022-12-31T23:54:16.204Z,100307.41
2022-12-31T23:56:42.779Z,100301.22
2022-12-31T23:59:11.179Z,100291.25
